Time;durP1;ratioP1;P1;durP2;ratioP2;P2;SDS_P1;SDS_P2;PMS_P1;PMS_P2;Temp;Humidity;BMP_temperature;BMP_pressure;BME280_temperature;BME280_humidity;BME280_pressure;Samples;Min_cycle;Max_cycle;Signal;HPM_P1;HPM_P2
2023/06/13 00:00:42;;;;;;;2.87;1.65;;;;;;;14.51;81.06;100236.91;5568270;32;34243;-69
2023/06/13 00:03:52;;;;;;;5.43;1.67;;;;;;;14.47;79.07;100224.97;5568066;32;33902;-68
2023/06/13 00:06:58;;;;;;;4.47;2.00;;;;;;;14.52;78.64;100233.22;5568032;32;33633;-68
2023/06/13 00:10:06;;;;;;;2.53;1.92;;;;;;;14.51;78.59;100228.91;5567913;32;34462;-68
2023/06/13 00:13:13;;;;;;;3.78;1.70;;;;;;;14.52;79.49;100227.88;5568048;32;34259;-68
2023/06/13 00:16:24;;;;;;;4.40;2.00;;;;;;;14.49;78.61;100230.91;5567933;32;34497;-67
2023/06/13 00:19:31;;;;;;;3.00;2.03;;;;;;;14.48;79.73;100223.94;5567926;32;33589;-68
2023/06/13 00:22:39;;;;;;;3.67;1.80;;;;;;;14.47;79.94;100219.63;5567961;32;34213;-68
2023/06/13 00:25:46;;;;;;;4.72;2.20;;;;;;;14.48;79.71;100214.06;5567683;32;33942;-68
2023/06/13 00:28:54;;;;;;;4.55;2.00;;;;;;;14.50;80.06;100212.06;5567921;32;34786;-68
2023/06/13 00:32:00;;;;;;;3.72;2.05;;;;;;;14.47;80.04;100223.13;5567850;32;33933;-67
2023/06/13 00:35:08;;;;;;;6.10;2.15;;;;;;;14.42;79.89;100212.22;5567853;32;34738;-68
2023/06/13 00:38:21;;;;;;;4.80;1.85;;;;;;;14.35;80.87;100211.31;5567898;32;34388;-67
2023/06/13 00:41:31;;;;;;;6.32;2.10;;;;;;;14.34;80.62;100209.66;5566978;32;33740;-68
2023/06/13 00:44:37;;;;;;;5.03;1.80;;;;;;;14.29;81.10;100201.41;5567002;32;34497;-67
2023/06/13 00:47:55;;;;;;;5.47;1.85;;;;;;;14.28;81.42;100202.47;5567677;32;33908;-67
2023/06/13 00:51:02;;;;;;;4.60;2.03;;;;;;;14.27;81.32;100198.12;5567556;32;33826;-68
2023/06/13 00:54:13;;;;;;;3.70;2.00;;;;;;;14.23;82.91;100194.22;5567751;32;34479;-68
2023/06/13 00:57:21;;;;;;;5.32;2.33;;;;;;;14.20;83.73;100186.59;5567658;32;33791;-68
2023/06/13 01:00:30;;;;;;;3.40;1.95;;;;;;;14.18;83.33;100188.63;5567505;32;33928;-68
2023/06/13 01:03:39;;;;;;;4.82;2.12;;;;;;;14.17;84.33;100179.81;5566730;32;34061;-67
2023/06/13 01:06:46;;;;;;;5.47;2.10;;;;;;;14.15;85.13;100179.16;5567233;32;33613;-68
2023/06/13 01:09:54;;;;;;;3.75;1.95;;;;;;;14.15;84.59;100178.34;5567481;32;34061;-68
2023/06/13 01:13:13;;;;;;;6.10;2.00;;;;;;;14.13;85.45;100169.72;5567419;32;34591;-67
2023/06/13 01:16:45;;;;;;;5.22;2.10;;;;;;;14.10;85.61;100168.25;5567391;32;33853;-67
2023/06/13 01:19:59;;;;;;;2.72;1.87;;;;;;;14.05;86.69;100172.53;5567309;32;33209;-67
2023/06/13 01:23:28;;;;;;;7.93;2.10;;;;;;;14.04;86.91;100160.22;5567359;32;33887;-68
2023/06/13 01:26:54;;;;;;;2.92;1.70;;;;;;;14.00;86.07;100161.63;5567248;32;33628;-67
2023/06/13 01:30:04;;;;;;;3.37;1.85;;;;;;;13.97;87.00;100159.34;5567567;32;33777;-67
2023/06/13 01:33:12;;;;;;;3.58;1.80;;;;;;;13.92;86.65;100163.44;5566323;32;34028;-67
2023/06/13 01:36:20;;;;;;;3.50;1.92;;;;;;;13.93;87.72;100161.59;5567187;32;34380;-68
2023/06/13 01:39:26;;;;;;;5.87;2.17;;;;;;;13.84;87.12;100157.44;5567446;32;34303;-68
2023/06/13 01:42:34;;;;;;;5.78;2.00;;;;;;;13.75;88.64;100145.22;5567158;32;33831;-67
2023/06/13 01:45:43;;;;;;;3.53;1.87;;;;;;;13.74;88.60;100143.59;5567196;32;33730;-68
2023/06/13 01:48:53;;;;;;;3.33;1.70;;;;;;;13.67;89.23;100145.37;5567126;32;34239;-68
2023/06/13 01:52:16;;;;;;;4.82;1.90;;;;;;;13.63;89.54;100144.94;5567016;32;33936;-68
2023/06/13 01:55:30;;;;;;;3.58;1.77;;;;;;;13.73;89.12;100150.78;5566988;32;34381;-68
2023/06/13 01:58:48;;;;;;;4.18;1.92;;;;;;;13.68;89.64;100144.38;5567075;32;34493;-68
2023/06/13 02:01:56;;;;;;;3.65;1.90;;;;;;;13.60;90.59;100148.03;5566973;32;33791;-68
2023/06/13 02:05:04;;;;;;;6.82;1.75;;;;;;;13.57;91.95;100143.06;5566725;32;34152;-67
2023/06/13 02:08:12;;;;;;;3.58;1.80;;;;;;;13.55;92.60;100150.44;5566796;32;33669;-68
2023/06/13 02:11:20;;;;;;;3.50;1.70;;;;;;;13.61;91.18;100146.97;5566663;32;34850;-68
2023/06/13 02:14:32;;;;;;;5.50;2.25;;;;;;;13.58;91.52;100142.03;5566701;32;34452;-67
2023/06/13 02:17:40;;;;;;;3.72;2.10;;;;;;;13.55;91.54;100145.09;5566092;32;34649;-68
2023/06/13 02:20:49;;;;;;;2.70;1.80;;;;;;;13.60;90.39;100149.84;5566511;32;34599;-68
2023/06/13 02:23:58;;;;;;;3.40;2.03;;;;;;;13.58;90.67;100138.56;5566396;32;34046;-67
2023/06/13 02:27:06;;;;;;;2.10;1.60;;;;;;;13.59;90.28;100141.03;5566478;32;33679;-67
2023/06/13 02:30:13;;;;;;;4.00;2.15;;;;;;;13.59;90.76;100137.53;5566581;32;33460;-68
2023/06/13 02:33:21;;;;;;;5.20;2.00;;;;;;;13.63;89.57;100142.28;5566524;32;33621;-67
2023/06/13 02:36:26;;;;;;;4.53;2.05;;;;;;;13.63;91.10;100146.78;5566305;32;34239;-68
2023/06/13 02:39:32;;;;;;;5.22;1.70;;;;;;;13.55;91.60;100142.44;5566206;32;33909;-67
2023/06/13 02:42:38;;;;;;;6.35;2.20;;;;;;;13.54;91.59;100132.78;5566312;32;33823;-67
2023/06/13 02:45:44;;;;;;;3.65;1.67;;;;;;;13.46;92.04;100139.06;5566171;32;34212;-68
2023/06/13 02:48:51;;;;;;;8.38;2.20;;;;;;;13.43;93.22;100119.97;5566192;32;34544;-68
2023/06/13 02:51:57;;;;;;;3.12;1.75;;;;;;;13.36;92.97;100135.91;5565899;32;33909;-68
2023/06/13 02:55:08;;;;;;;5.12;2.10;;;;;;;13.33;93.25;100140.78;5570230;31;34551;-68
2023/06/13 02:58:14;;;;;;;4.55;2.10;;;;;;;13.24;93.53;100137.44;5584705;31;33864;-68
2023/06/13 03:01:22;;;;;;;7.85;2.05;;;;;;;13.18;94.60;100134.72;5585551;31;33698;-68
2023/06/13 03:04:33;;;;;;;4.03;2.30;;;;;;;13.08;94.36;100135.81;5585477;31;34328;-68
2023/06/13 03:07:42;;;;;;;5.05;1.85;;;;;;;13.03;95.83;100138.22;5585308;31;33996;-67
2023/06/13 03:10:50;;;;;;;4.12;1.73;;;;;;;13.16;93.30;100134.09;5585062;31;33968;-68
2023/06/13 03:13:59;;;;;;;4.35;1.92;;;;;;;13.18;92.54;100134.72;5585211;31;34481;-68
2023/06/13 03:17:06;;;;;;;5.07;2.55;;;;;;;13.11;92.70;100137.31;5585241;31;34830;-67
2023/06/13 03:20:16;;;;;;;7.80;2.00;;;;;;;13.11;93.02;100140.00;5585063;31;33921;-67
2023/06/13 03:23:36;;;;;;;3.85;1.80;;;;;;;13.13;93.30;100137.12;5585112;31;33451;-67
2023/06/13 03:26:46;;;;;;;8.80;1.98;;;;;;;13.17;92.72;100136.53;5584728;31;33908;-67
2023/06/13 03:29:53;;;;;;;5.53;2.03;;;;;;;13.15;93.21;100140.44;5585768;31;33922;-68
2023/06/13 03:33:03;;;;;;;7.75;2.05;;;;;;;13.09;93.99;100141.97;5588060;31;33730;-68
2023/06/13 03:36:10;;;;;;;2.83;1.90;;;;;;;13.09;93.29;100139.31;5587898;31;34844;-68
2023/06/13 03:39:18;;;;;;;4.45;1.92;;;;;;;13.09;94.81;100136.66;5587229;31;33960;-68
2023/06/13 03:42:25;;;;;;;5.80;1.90;;;;;;;13.10;94.96;100138.31;5587847;31;34028;-67
2023/06/13 03:45:30;;;;;;;9.18;2.33;;;;;;;13.04;95.48;100139.06;5587740;31;34389;-67
2023/06/13 03:48:39;;;;;;;10.10;2.30;;;;;;;12.91;97.13;100133.59;5587720;31;33769;-67
2023/06/13 03:51:45;;;;;;;2.33;1.87;;;;;;;12.93;99.47;100136.88;5587636;31;34414;-67
2023/06/13 03:54:52;;;;;;;5.68;2.33;;;;;;;12.98;98.55;100134.47;5587637;31;33794;-67
2023/06/13 03:57:57;;;;;;;2.72;2.03;;;;;;;12.96;97.84;100133.84;5587770;31;33604;-67
2023/06/13 04:01:06;;;;;;;4.28;2.20;;;;;;;13.06;96.01;100139.69;5587769;31;33975;-68
2023/06/13 04:04:13;;;;;;;5.25;2.40;;;;;;;13.06;96.98;100147.69;5586924;31;33683;-68
2023/06/13 04:07:21;;;;;;;4.82;2.28;;;;;;;13.06;97.29;100151.19;5587419;31;33652;-68
2023/06/13 04:10:27;;;;;;;6.47;2.75;;;;;;;13.08;98.93;100154.47;5587626;31;34338;-69
2023/06/13 04:13:35;;;;;;;4.15;2.08;;;;;;;13.13;100.00;100147.78;5587579;31;33919;-67
2023/06/13 04:16:43;;;;;;;7.68;2.12;;;;;;;13.10;100.00;100148.94;5586485;31;33863;-66
2023/06/13 04:19:48;;;;;;;6.97;2.10;;;;;;;13.06;97.08;100153.84;5587215;31;35393;-66
2023/06/13 04:22:57;;;;;;;4.50;2.10;;;;;;;13.10;96.50;100148.13;5587457;31;34621;-66
2023/06/13 04:26:03;;;;;;;5.22;2.20;;;;;;;13.16;96.73;100145.56;5587405;31;34478;-66
2023/06/13 04:29:09;;;;;;;3.33;2.10;;;;;;;13.30;93.44;100152.66;5586418;31;34043;-66
2023/06/13 04:32:17;;;;;;;4.95;2.10;;;;;;;13.43;93.97;100154.63;5587586;31;33691;-66
2023/06/13 04:35:26;;;;;;;6.70;2.00;;;;;;;13.58;91.51;100159.88;5587252;31;33927;-67
2023/06/13 04:38:35;;;;;;;4.95;2.05;;;;;;;13.69;92.20;100156.69;5586416;31;33806;-67
2023/06/13 04:41:43;;;;;;;7.78;2.20;;;;;;;13.84;90.15;100157.44;5586189;31;33851;-67
2023/06/13 04:44:49;;;;;;;4.25;2.20;;;;;;;13.93;89.18;100158.91;5585130;31;33888;-66
2023/06/13 04:48:01;;;;;;;4.35;1.92;;;;;;;13.92;84.44;100162.59;5582595;31;33855;-66
2023/06/13 04:51:09;;;;;;;3.40;2.05;;;;;;;13.93;83.94;100167.75;5587016;31;33778;-67
2023/06/13 04:54:15;;;;;;;4.00;2.12;;;;;;;14.04;86.87;100165.56;5586172;31;34083;-67
2023/06/13 04:57:21;;;;;;;7.72;2.08;;;;;;;14.05;83.00;100160.00;5586130;31;33939;-67
2023/06/13 05:00:28;;;;;;;5.30;1.95;;;;;;;14.24;80.19;100161.16;5586131;31;33859;-67
2023/06/13 05:03:34;;;;;;;4.47;2.10;;;;;;;14.23;83.80;100162.19;5586524;31;34087;-66
2023/06/13 05:06:41;;;;;;;3.40;1.77;;;;;;;14.46;79.92;100157.41;5586812;31;33748;-67
2023/06/13 05:09:48;;;;;;;3.83;2.12;;;;;;;14.41;78.50;100159.03;5586561;31;34890;-68
2023/06/13 05:12:55;;;;;;;2.78;1.73;;;;;;;14.39;78.27;100163.72;5586455;31;33868;-67
2023/06/13 05:16:00;;;;;;;4.55;2.20;;;;;;;14.49;77.67;100156.19;5586859;31;34568;-67
2023/06/13 05:19:06;;;;;;;7.25;2.12;;;;;;;14.52;79.13;100158.47;5584391;31;33788;-67
2023/06/13 05:22:12;;;;;;;3.67;1.70;;;;;;;14.63;73.19;100155.22;5586075;31;34041;-67
2023/06/13 05:25:20;;;;;;;3.78;1.73;;;;;;;14.67;70.99;100161.78;5586497;31;33836;-68
2023/06/13 05:28:29;;;;;;;3.83;1.73;;;;;;;14.74;70.58;100162.66;5586199;31;33837;-68
2023/06/13 05:31:34;;;;;;;4.37;1.95;;;;;;;14.85;69.18;100159.41;5586510;31;33852;-67
2023/06/13 05:34:40;;;;;;;3.12;1.80;;;;;;;14.87;73.13;100157.34;5578669;31;34752;-67
2023/06/13 05:37:46;;;;;;;6.18;1.83;;;;;;;15.04;69.98;100157.81;5572982;31;34528;-66
2023/06/13 05:40:52;;;;;;;6.62;2.00;;;;;;;15.08;70.52;100164.41;5585189;31;34040;-67
2023/06/13 05:43:56;;;;;;;4.80;2.17;;;;;;;15.29;69.92;100164.25;5585524;31;34418;-66
2023/06/13 05:47:00;;;;;;;6.37;1.90;;;;;;;15.46;68.18;100165.50;5585228;31;33849;-68
2023/06/13 05:50:04;;;;;;;5.95;1.67;;;;;;;15.45;65.31;100163.84;5584477;31;34397;-68
2023/06/13 05:53:08;;;;;;;3.33;1.87;;;;;;;15.41;67.31;100169.81;5570335;31;34835;-67
2023/06/13 05:56:13;;;;;;;4.90;1.92;;;;;;;15.52;69.21;100167.38;5578762;31;34056;-68
2023/06/13 05:59:18;;;;;;;6.95;2.25;;;;;;;15.49;63.71;100164.28;5574492;31;34702;-67
2023/06/13 06:02:22;;;;;;;4.60;1.90;;;;;;;15.57;64.53;100159.56;5576017;31;33824;-67
2023/06/13 06:05:29;;;;;;;6.35;2.03;;;;;;;15.73;62.06;100169.03;5577958;31;34452;-67
2023/06/13 06:08:33;;;;;;;3.15;1.67;;;;;;;15.77;61.36;100172.13;5583140;31;33864;-69
2023/06/13 06:11:38;;;;;;;3.83;1.95;;;;;;;15.78;63.58;100169.22;5585916;31;33792;-68
2023/06/13 06:14:41;;;;;;;7.25;2.00;;;;;;;15.65;58.09;100175.41;5585769;31;34572;-68
2023/06/13 06:17:45;;;;;;;10.52;2.20;;;;;;;15.79;59.38;100168.19;5585783;31;33023;-67
2023/06/13 06:20:49;;;;;;;13.48;2.80;;;;;;;15.97;60.00;100173.75;5585839;31;33707;-68
2023/06/13 06:23:52;;;;;;;9.15;1.98;;;;;;;16.11;60.89;100169.22;5571472;31;33813;-68
2023/06/13 06:26:56;;;;;;;2.58;1.48;;;;;;;15.96;58.32;100165.94;5571956;31;34941;-68
2023/06/13 06:30:00;;;;;;;7.45;2.00;;;;;;;15.96;58.48;100160.59;5580126;31;33604;-68
2023/06/13 06:33:03;;;;;;;6.62;2.00;;;;;;;16.19;59.53;100166.31;5579011;31;34712;-68
2023/06/13 06:36:07;;;;;;;4.25;1.87;;;;;;;16.33;59.33;100169.75;5584429;31;34109;-68
2023/06/13 06:39:10;;;;;;;7.05;2.10;;;;;;;16.12;57.41;100168.16;5584465;31;34664;-68
2023/06/13 06:42:15;;;;;;;5.10;1.90;;;;;;;16.18;58.36;100163.81;5578511;31;34705;-67
2023/06/13 06:45:22;;;;;;;7.37;2.00;;;;;;;16.29;56.77;100155.16;5582004;31;35026;-67
2023/06/13 06:48:25;;;;;;;8.25;1.75;;;;;;;16.42;56.88;100144.41;5583573;31;33841;-68
2023/06/13 06:51:29;;;;;;;4.45;1.98;;;;;;;16.43;56.24;100148.72;5570299;31;35163;-68
2023/06/13 06:54:33;;;;;;;3.15;1.92;;;;;;;16.41;57.03;100146.25;5565200;32;33942;-66
2023/06/13 06:57:38;;;;;;;3.58;2.12;;;;;;;16.66;55.18;100150.94;5565484;32;33578;-66
2023/06/13 07:00:42;;;;;;;6.53;1.90;;;;;;;16.68;55.55;100143.50;5569333;31;34043;-66
2023/06/13 07:03:46;;;;;;;6.68;1.90;;;;;;;16.91;53.94;100146.47;5584236;31;34256;-67
2023/06/13 07:06:49;;;;;;;6.65;1.87;;;;;;;17.02;54.29;100150.34;5586906;31;34673;-67
2023/06/13 07:09:54;;;;;;;20.00;3.00;;;;;;;17.13;53.33;100147.00;5586841;31;34878;-68
2023/06/13 07:12:59;;;;;;;32.20;3.90;;;;;;;17.36;52.30;100141.87;5586760;31;33687;-69
2023/06/13 07:16:05;;;;;;;6.50;2.50;;;;;;;17.73;52.96;100142.84;5587261;31;33972;-68
2023/06/13 07:19:09;;;;;;;6.55;1.80;;;;;;;17.78;54.09;100143.81;5587546;31;34523;-68
2023/06/13 07:22:13;;;;;;;6.47;1.87;;;;;;;17.69;52.10;100150.50;5587442;31;33960;-69
2023/06/13 07:25:16;;;;;;;5.85;1.80;;;;;;;17.90;50.20;100146.63;5587375;31;33698;-68
2023/06/13 07:28:21;;;;;;;4.43;1.80;;;;;;;17.98;49.63;100146.31;5587436;31;34353;-68
2023/06/13 07:31:25;;;;;;;6.25;2.00;;;;;;;18.13;49.71;100137.91;5586269;31;33699;-68
2023/06/13 07:34:29;;;;;;;5.22;1.83;;;;;;;18.16;51.70;100143.66;5586335;31;33581;-69
2023/06/13 07:37:53;;;;;;;5.15;1.70;;;;;;;18.44;50.31;100129.72;5587487;31;33932;-69
2023/06/13 07:40:57;;;;;;;9.73;1.70;;;;;;;19.21;47.52;100130.78;5587430;31;33861;-69
2023/06/13 07:44:03;;;;;;;4.15;1.73;;;;;;;19.71;47.79;100133.09;5587261;31;34807;-69
2023/06/13 07:47:08;;;;;;;2.47;1.60;;;;;;;20.85;45.38;100126.16;5587177;31;34961;-69
2023/06/13 07:50:13;;;;;;;8.25;2.12;;;;;;;21.25;43.67;100125.03;5586852;31;34492;-69
2023/06/13 07:53:18;;;;;;;8.77;1.80;;;;;;;23.10;41.31;100120.81;5587039;31;34484;-70
2023/06/13 07:56:24;;;;;;;5.75;1.80;;;;;;;22.48;41.91;100118.50;5586959;31;33847;-68
2023/06/13 07:59:28;;;;;;;6.47;2.10;;;;;;;20.83;44.56;100119.09;5587191;31;34288;-71
2023/06/13 08:02:34;;;;;;;4.57;1.62;;;;;;;21.82;42.34;100121.34;5586222;31;35490;-71
2023/06/13 08:05:39;;;;;;;3.40;1.65;;;;;;;22.45;40.79;100112.78;5586822;31;34595;-71
2023/06/13 08:08:43;;;;;;;5.28;1.85;;;;;;;22.76;39.52;100109.38;5586570;31;34897;-72
2023/06/13 08:11:47;;;;;;;3.28;1.70;;;;;;;23.36;38.00;100125.41;5586272;31;34391;-69
2023/06/13 08:14:50;;;;;;;5.57;1.50;;;;;;;23.47;38.12;100118.22;5581217;31;34471;-70
2023/06/13 08:17:54;;;;;;;6.15;1.50;;;;;;;23.71;38.94;100113.25;5549053;31;34263;-70
2023/06/13 08:20:57;;;;;;;3.28;1.50;;;;;;;23.33;39.15;100115.06;5562965;31;34321;-70
2023/06/13 08:24:01;;;;;;;11.73;2.70;;;;;;;22.90;36.89;100099.78;5562441;31;34061;-71
2023/06/13 08:27:05;;;;;;;3.15;1.60;;;;;;;22.41;39.17;100106.25;5566579;31;33539;-72
2023/06/13 08:30:09;;;;;;;4.97;1.90;;;;;;;21.97;38.62;100110.81;5566165;32;34742;-72
2023/06/13 08:33:13;;;;;;;6.03;1.75;;;;;;;23.39;36.12;100114.06;5557044;31;34955;-72
2023/06/13 08:36:18;;;;;;;4.60;1.60;;;;;;;23.71;36.52;100105.13;5581302;31;33630;-72
2023/06/13 08:39:35;;;;;;;6.53;1.80;;;;;;;24.48;34.98;100104.50;5573939;31;34384;-71
2023/06/13 08:42:39;;;;;;;7.05;1.80;;;;;;;23.21;36.73;100092.78;5585434;31;33879;-69
2023/06/13 08:45:43;;;;;;;5.43;1.98;;;;;;;24.23;35.49;100097.06;5571858;31;35659;-70
2023/06/13 08:48:47;;;;;;;5.18;1.80;;;;;;;24.05;37.19;100098.31;5572781;31;34186;-70
2023/06/13 08:51:54;;;;;;;6.25;1.52;;;;;;;25.79;34.35;100099.25;5586504;31;33954;-69
2023/06/13 08:54:59;;;;;;;3.10;1.70;;;;;;;25.07;35.21;100105.75;5566996;32;33960;-71
2023/06/13 08:58:27;;;;;;;6.15;1.80;;;;;;;25.05;34.14;100105.22;5592690;31;33938;-72
2023/06/13 09:01:32;;;;;;;5.57;1.75;;;;;;;25.65;33.12;100113.69;5567869;32;33721;-72
2023/06/13 09:04:37;;;;;;;3.12;1.45;;;;;;;24.26;34.89;100096.53;5566141;32;34887;-73
2023/06/13 09:07:42;;;;;;;4.12;1.70;;;;;;;25.05;34.39;100096.25;5567125;32;33904;-70
2023/06/13 09:10:47;;;;;;;2.40;1.60;;;;;;;24.24;33.90;100099.53;5566885;32;33946;-71
2023/06/13 09:13:55;;;;;;;3.53;1.62;;;;;;;25.76;31.23;100101.69;5577987;31;33837;-70
2023/06/13 09:16:58;;;;;;;3.70;1.40;;;;;;;25.54;32.18;100099.25;5580877;31;33895;-71
2023/06/13 09:20:05;;;;;;;10.20;1.90;;;;;;;25.68;33.38;100103.06;5581366;31;34499;-70
2023/06/13 09:23:15;;;;;;;2.85;1.30;;;;;;;26.21;29.69;100095.31;5568092;31;33900;-72
2023/06/13 09:26:20;;;;;;;5.03;1.75;;;;;;;25.19;32.77;100093.81;5586117;31;32634;-72
2023/06/13 09:29:34;;;;;;;3.05;1.48;;;;;;;25.71;31.16;100096.25;5586293;31;33918;-72
2023/06/13 09:32:53;;;;;;;4.03;1.60;;;;;;;27.59;29.00;100095.06;5584875;31;34542;-72
2023/06/13 09:35:56;;;;;;;8.25;2.10;;;;;;;28.30;27.71;100094.34;5586401;31;33814;-71
2023/06/13 09:39:04;;;;;;;9.43;2.12;;;;;;;27.60;29.84;100093.16;5591992;31;33879;-73
2023/06/13 09:42:10;;;;;;;3.22;1.52;;;;;;;24.22;33.00;100090.00;5591131;31;32285;-71
2023/06/13 09:45:15;;;;;;;6.10;1.67;;;;;;;25.10;33.08;100079.97;5584943;31;34262;-69
2023/06/13 09:48:21;;;;;;;5.53;1.67;;;;;;;26.16;31.92;100073.59;5586291;31;34623;-72
2023/06/13 09:51:28;;;;;;;5.28;1.70;;;;;;;25.41;29.87;100080.78;5586208;31;34114;-71
2023/06/13 09:54:32;;;;;;;6.55;1.98;;;;;;;25.72;30.73;100085.13;5586413;31;33719;-71
2023/06/13 09:57:38;;;;;;;4.07;1.80;;;;;;;24.75;32.97;100080.69;5585451;31;33902;-72
2023/06/13 10:01:03;;;;;;;4.50;1.75;;;;;;;26.40;29.76;100090.94;5585206;31;34211;-75
2023/06/13 10:04:08;;;;;;;4.25;1.83;;;;;;;27.75;29.39;100082.09;5586465;31;33917;-72
2023/06/13 10:07:11;;;;;;;4.45;1.83;;;;;;;27.06;30.00;100087.87;5589075;31;33848;-76
2023/06/13 10:10:16;;;;;;;8.82;1.80;;;;;;;27.80;29.99;100078.50;5588929;31;33494;-71
2023/06/13 10:13:24;;;;;;;2.22;1.45;;;;;;;29.43;29.48;100087.03;5586448;31;33860;-72
2023/06/13 10:16:33;;;;;;;3.22;1.62;;;;;;;29.91;27.25;100084.00;5585621;31;33581;-73
2023/06/13 10:19:39;;;;;;;1.87;1.35;;;;;;;29.94;27.81;100091.59;5584825;31;33670;-69
2023/06/13 10:22:42;;;;;;;4.18;1.55;;;;;;;26.06;31.54;100079.06;5585772;31;34007;-71
2023/06/13 10:25:56;;;;;;;3.28;1.30;;;;;;;28.84;28.33;100083.00;5585861;31;33606;-72
2023/06/13 10:29:43;;;;;;;2.42;1.42;;;;;;;24.89;34.50;100075.59;5585532;31;33900;-72
2023/06/13 10:33:23;;;;;;;3.15;1.52;;;;;;;27.68;30.53;100068.03;5585554;31;33878;-72
2023/06/13 10:36:31;;;;;;;3.50;1.42;;;;;;;29.04;28.61;100070.16;5585269;31;34461;-70
2023/06/13 10:39:45;;;;;;;6.50;1.70;;;;;;;25.86;32.29;100060.91;5576852;31;34514;-73
2023/06/13 10:43:27;;;;;;;4.07;2.08;;;;;;;25.41;33.39;100067.22;5574280;31;33826;-72
2023/06/13 10:46:32;;;;;;;4.40;1.70;;;;;;;25.64;33.67;100057.72;5543353;32;35302;-72
2023/06/13 10:49:39;;;;;;;3.53;1.67;;;;;;;27.01;30.91;100056.06;5573063;31;34632;-73
2023/06/13 10:52:49;;;;;;;6.80;2.03;;;;;;;28.00;29.31;100053.75;5588228;31;33787;-72
2023/06/13 10:55:59;;;;;;;3.83;1.45;;;;;;;30.90;27.34;100057.50;5587676;31;34010;-73
2023/06/13 10:59:17;;;;;;;3.83;1.33;;;;;;;31.10;24.37;100053.50;5584520;31;34606;-72
2023/06/13 11:02:21;;;;;;;3.65;1.70;;;;;;;32.28;24.13;100047.34;5568259;32;34746;-74
2023/06/13 11:05:25;;;;;;;2.67;1.50;;;;;;;30.12;26.39;100052.38;5584703;31;34069;-73
2023/06/13 11:08:43;;;;;;;;;;;;;;;30.62;25.09;100037.63;5576389;31;33677;-70
2023/06/13 11:11:53;;;;;;;4.85;1.60;;;;;;;29.96;27.18;100040.94;5567764;31;34570;-73
2023/06/13 11:14:59;;;;;;;3.25;1.77;;;;;;;32.15;24.11;100043.59;5587857;31;33789;-72
2023/06/13 11:18:03;;;;;;;4.12;1.80;;;;;;;32.58;23.10;100046.41;5577000;31;33636;-71
2023/06/13 11:21:07;;;;;;;3.70;1.50;;;;;;;30.88;24.84;100045.25;5584519;31;34613;-71
2023/06/13 11:24:14;;;;;;;3.45;1.55;;;;;;;30.25;24.58;100043.34;5576827;31;33896;-72
2023/06/13 11:27:24;;;;;;;5.80;1.83;;;;;;;29.02;26.04;100034.94;5576420;31;34000;-72
2023/06/13 11:30:28;;;;;;;3.90;1.62;;;;;;;28.98;27.29;100033.09;5577573;31;33543;-72
2023/06/13 11:33:41;;;;;;;3.15;1.70;;;;;;;31.85;24.97;100028.78;5577804;31;33583;-74
2023/06/13 11:36:46;;;;;;;2.45;1.42;;;;;;;32.63;23.58;100020.75;5571571;31;33648;-74
2023/06/13 11:39:55;;;;;;;3.67;1.60;;;;;;;32.35;23.94;100014.72;5576482;31;34079;-72
2023/06/13 11:43:01;;;;;;;2.25;1.45;;;;;;;31.74;24.00;100013.75;5575422;31;33843;-74
2023/06/13 11:46:05;;;;;;;3.87;1.45;;;;;;;32.92;22.43;100009.13;5577867;31;33524;-72
2023/06/13 11:49:11;;;;;;;4.90;1.52;;;;;;;30.83;24.99;100016.06;5586076;31;34898;-73
2023/06/13 11:52:15;;;;;;;3.97;1.83;;;;;;;30.54;25.47;100012.91;5586690;31;34545;-71
2023/06/13 11:55:18;;;;;;;6.70;1.70;;;;;;;30.01;26.30;100018.16;5586563;31;33726;-73
2023/06/13 11:58:31;;;;;;;3.92;1.55;;;;;;;32.48;24.30;100026.72;5581226;31;34447;-71
2023/06/13 12:01:37;;;;;;;5.30;1.58;;;;;;;29.31;25.99;100019.16;5553266;31;34754;-72
2023/06/13 12:04:43;;;;;;;3.92;1.52;;;;;;;27.36;27.90;100013.25;5557934;31;35045;-71
2023/06/13 12:07:53;;;;;;;5.00;1.60;;;;;;;27.81;28.13;100001.91;5569454;31;34159;-72
2023/06/13 12:10:57;;;;;;;2.37;1.42;;;;;;;30.73;24.79;99996.31;5570630;31;33402;-72
2023/06/13 12:14:02;;;;;;;3.00;1.52;;;;;;;32.02;22.95;99988.81;5581290;31;33868;-71
2023/06/13 12:17:07;;;;;;;5.68;1.80;;;;;;;34.07;20.72;99991.59;5586330;31;34781;-72
2023/06/13 12:20:11;;;;;;;1.70;1.37;;;;;;;32.94;22.13;99991.16;5584170;31;34469;-70
2023/06/13 12:23:15;;;;;;;8.10;1.70;;;;;;;31.93;22.30;99994.28;5586391;31;33684;-70
2023/06/13 12:26:19;;;;;;;4.28;1.60;;;;;;;33.03;22.66;100002.13;5587007;31;32482;-71
2023/06/13 12:29:27;;;;;;;4.55;1.48;;;;;;;35.89;19.87;99998.66;5584539;31;34159;-71
2023/06/13 12:32:43;;;;;;;5.30;1.83;;;;;;;38.04;16.86;99997.62;5587389;31;33980;-71
2023/06/13 12:35:53;;;;;;;7.05;1.75;;;;;;;37.80;17.76;99997.81;5575022;31;34093;-71
2023/06/13 12:38:59;;;;;;;2.83;1.65;;;;;;;34.10;21.59;99986.22;5587317;31;33059;-72
2023/06/13 12:42:10;;;;;;;22.48;1.60;;;;;;;30.83;24.69;99977.72;5586996;31;33554;-73
2023/06/13 12:45:14;;;;;;;2.53;1.48;;;;;;;33.74;21.92;99980.47;5586989;31;33840;-72
2023/06/13 12:48:19;;;;;;;3.97;1.52;;;;;;;34.98;20.14;99969.50;5586656;31;33784;-73
2023/06/13 12:51:29;;;;;;;3.53;1.50;;;;;;;34.88;20.11;99965.22;5583186;31;33899;-72
2023/06/13 12:54:35;;;;;;;10.38;1.83;;;;;;;36.05;19.64;99971.16;5573420;31;34295;-73
2023/06/13 12:57:39;;;;;;;2.40;1.50;;;;;;;35.91;18.98;99974.28;5571019;31;33698;-72
2023/06/13 13:00:50;;;;;;;2.47;1.42;;;;;;;35.76;19.58;99974.16;5570537;31;34951;-71
2023/06/13 13:03:54;;;;;;;6.37;1.62;;;;;;;36.74;18.14;99972.84;5580104;31;32815;-72
2023/06/13 13:06:59;;;;;;;2.75;2.15;;;;;;;36.22;19.04;99970.91;5580395;31;34508;-73
2023/06/13 13:10:06;;;;;;;7.82;1.60;;;;;;;38.47;17.62;99974.47;5580769;31;33683;-72
2023/06/13 13:13:23;;;;;;;7.10;1.70;;;;;;;37.16;17.97;99971.28;5579152;31;32509;-71
2023/06/13 13:16:27;;;;;;;5.32;1.70;;;;;;;35.65;18.97;99968.25;5579344;31;33570;-71
2023/06/13 13:19:31;;;;;;;4.22;1.65;;;;;;;38.11;17.05;99969.28;5580333;31;34934;-72
2023/06/13 13:22:36;;;;;;;8.60;1.70;;;;;;;38.05;17.05;99970.75;5576965;31;33783;-73
2023/06/13 13:25:40;;;;;;;2.70;1.83;;;;;;;36.58;18.63;99961.72;5578432;31;34346;-71
2023/06/13 13:28:44;;;;;;;2.75;1.62;;;;;;;37.31;17.85;99964.94;5580701;31;33838;-73
2023/06/13 13:31:49;;;;;;;3.28;1.50;;;;;;;37.28;18.10;99962.87;5586534;31;33969;-71
2023/06/13 13:34:53;;;;;;;4.50;1.60;;;;;;;34.88;18.56;99954.22;5586444;31;33734;-72
2023/06/13 13:37:57;;;;;;;2.15;1.45;;;;;;;36.74;18.32;99951.53;5586122;31;33613;-72
2023/06/13 13:41:01;;;;;;;4.65;1.58;;;;;;;39.02;15.95;99958.53;5579065;31;34040;-72
2023/06/13 13:44:06;;;;;;;4.60;1.50;;;;;;;38.10;17.39;99956.59;5580574;31;33294;-72
2023/06/13 13:47:11;;;;;;;3.12;1.65;;;;;;;40.90;15.41;99953.81;5583764;31;33347;-73
2023/06/13 13:50:16;;;;;;;3.15;1.70;;;;;;;38.30;16.44;99947.13;5580562;31;34976;-72
2023/06/13 13:53:20;;;;;;;4.50;1.73;;;;;;;34.36;19.84;99942.03;5574468;31;34190;-71
2023/06/13 13:56:24;;;;;;;9.00;1.80;;;;;;;31.65;23.39;99943.53;5585061;31;33329;-70
2023/06/13 13:59:31;;;;;;;5.15;1.62;;;;;;;27.73;27.51;99936.31;5585345;31;34539;-71
2023/06/13 14:02:37;;;;;;;24.83;2.35;;;;;;;26.11;29.45;99932.22;5575361;31;33940;-71
2023/06/13 14:05:42;;;;;;;3.75;1.48;;;;;;;29.26;26.76;99933.69;5579698;31;34777;-72
2023/06/13 14:08:46;;;;;;;5.37;1.50;;;;;;;33.08;22.48;99927.75;5578454;31;33876;-71
2023/06/13 14:11:50;;;;;;;3.37;1.80;;;;;;;35.10;20.30;99933.69;5584401;31;33931;-72
2023/06/13 14:14:54;;;;;;;4.60;1.45;;;;;;;35.11;20.71;99924.28;5579485;31;33617;-72
2023/06/13 14:17:57;;;;;;;3.45;1.45;;;;;;;35.24;19.79;99925.16;5570717;31;33889;-71
2023/06/13 14:21:02;;;;;;;6.47;1.80;;;;;;;31.05;24.14;99919.38;5581858;31;33678;-71
2023/06/13 14:24:05;;;;;;;6.07;1.60;;;;;;;29.22;26.41;99927.22;5575336;31;33917;-70
2023/06/13 14:27:09;;;;;;;3.10;1.75;;;;;;;28.58;27.88;99926.13;5568784;31;33636;-69
2023/06/13 14:30:12;;;;;;;5.90;2.00;;;;;;;27.37;28.65;99919.53;5572048;31;33799;-71
2023/06/13 14:33:21;;;;;;;3.70;1.85;;;;;;;25.54;32.10;99917.25;5583649;31;34789;-70